Pagrindinis puslapis
METAR-TAF:

METAR-TAF

Oro uostai :

Kantas, Vietnamas

platuma: 10-05-07N, ilguma: 105-42-43E, Aukštis: 3 m

Dabartinis oras

Ataskaita buvo paskelbta 28 minutes, ne 00:30 UTC
Vėjas 3 kt nuo kintamojo kryptimis
Temperatūra 25°C
Drėgmė 100%
Slėgis 1008 hPa
Matomumas: 5000 m
Mažai debesys ne aukštis 1300 ft
Išsisklaidę debesys ne aukštis 4000 ft
rūkana

METAR: VVCT 260030Z VRB03KT 5000 BR FEW013 SCT040 25/25 Q1008 NOSIG

Laikas: 07:58 (00:58 UTC)

Prognozė

Ataskaita buvo paskelbta 1 valandą ir 58 minutes, ne 23:00 UTC
Prognozė galioja nuo 26 metu 00 UTC su 26 metu 24 UTC
Vėjas 3 kt nuo kintamojo kryptimis
Matomumas 10 km arba daugiau
Išsisklaidę debesys ne aukštis 1500 ft
Tapsmas
nuo 26 metu 05 UTC su 26 metu 06 UTC
Vėjas 10 kt iš Pietų/Pietryčių

TAF: VVCT 252300Z 2600/2624 VRB03KT 9999 SCT015 BECMG 2605/2606 15010KT

Orai ataskaitas ir orų prognozės (METAR, TAF).

turimą stotys yra geltonos ir raudonos taškus žemėlapyje.

Perkelti pele per norėdami pamatyti stoties vardą.

Tada spustelėkite, norėdami matyti oro stebėjimo ir prognozės.

Norėdami pakeisti žemėlapį: spustelėkite ant žalios mygtukų su juodo kryžiaus žemyn,; žalią mygtuką su brūkšneliu, jei norite nutolinti; arba žalių rodyklių gretimoms žemėlapius.


METAR-TAF: